Portada
METAR-TAF:

METAR-TAF

Aeroports :

Àstrakhan, Rússia

latitud: 46-17N, longitud: 048-00-23E, altitud: 0 m

Observació

L'informe es va fer fa 38 minuts, a les 22:00 UTC
Vent 4 kt del Oest
Temperatura -5°C
Humitat 86%
Pressió 1020 hPa
Visibilitat 10 km o més
sense núvols per sota de 1500 mi sense presència de cumulonimbus.

METAR: URWA 092200Z 28002MPS CAVOK M05/M07 Q1020 R27/010070 NOSIG RMK QFE767/1022

Hora: 02:38 (22:38 UTC)

Pronòstic

L'informe es va fer fa 2 hores i 38 minuts, a les 20:00 UTC
Pronòstic vàlid del 09 a les 21 UTC al 10 a les 06 UTC
Vent 6 kt del Oest/Nord-Oest
Visibilitat 10 km o més
Núvols disperses a una alçada de 2000 ft
Temporalment
l' 09 a les 21 UTC al 10 a les 03 UTC
Visibilitat: 3100 m
Cel ennuvolat a una alçada de 1100 ft
boirina

TAF: URWA 092000Z 0921/1006 30003MPS 9999 SCT020 TEMPO 0921/1003 3100 BR BKN011

Observacions i pronòstics meteorològics de més de 4000 aeroports (METAR i TAF).

Les estacions disponibles són els punts grocs i vermells al mapa.

Posi el ratolí al punt desitjat per veure el nom de l'estació.

Feu clic per veure les observacions i els pronòstics meteorològics.

Per canviar el mapa: feu clic els botons verds amb una creu de color negre per apropar; al botó verd amb un guió per allunyar la imatge; o en les fletxes verdes per a mapes adjacents.


METAR-TAF: